createdAt,value
2019-05-23T00:01:19.579Z,32.83
2019-05-23T00:03:49.918Z,33.05
2019-05-23T00:06:32.275Z,34.80
2019-05-23T00:09:02.255Z,33.50
2019-05-23T00:11:32.611Z,33.58
2019-05-23T00:14:06.203Z,33.50
2019-05-23T00:16:35.013Z,35.45
2019-05-23T00:19:04.378Z,33.33
2019-05-23T00:21:33.225Z,35.68
2019-05-23T00:24:02.989Z,34.43
2019-05-23T00:26:34.597Z,34.27
2019-05-23T00:29:10.048Z,35.85
2019-05-23T00:31:35.482Z,36.35
2019-05-23T00:34:05.000Z,35.00
2019-05-23T00:36:35.378Z,38.80
2019-05-23T00:39:07.260Z,38.25
2019-05-23T00:41:37.327Z,37.93
2019-05-23T00:44:07.246Z,38.78
2019-05-23T00:46:37.582Z,37.20
2019-05-23T00:49:08.377Z,37.35
2019-05-23T00:51:38.360Z,37.25
2019-05-23T00:54:07.437Z,37.75
2019-05-23T00:56:37.327Z,36.58
2019-05-23T00:59:07.033Z,37.50
2019-05-23T01:01:37.912Z,37.93
2019-05-23T01:04:06.954Z,36.33
2019-05-23T01:06:37.407Z,35.65
2019-05-23T01:09:08.012Z,34.48
2019-05-23T01:11:38.105Z,34.38
2019-05-23T01:14:08.433Z,31.27
2019-05-23T01:16:37.208Z,31.48
2019-05-23T01:19:07.522Z,32.23
2019-05-23T01:21:54.466Z,32.80
2019-05-23T01:24:26.004Z,32.78
2019-05-23T01:26:54.978Z,33.55
2019-05-23T01:29:24.781Z,32.58
2019-05-23T01:31:57.847Z,32.73
2019-05-23T01:34:27.398Z,34.53
2019-05-23T01:36:57.002Z,32.25
2019-05-23T01:39:25.881Z,33.02
2019-05-23T01:41:54.650Z,31.70
2019-05-23T01:44:23.935Z,30.88
2019-05-23T01:46:53.345Z,30.65
2019-05-23T01:49:22.759Z,30.30
2019-05-23T01:51:51.598Z,31.20
2019-05-23T01:54:21.179Z,30.20
2019-05-23T01:56:50.490Z,29.07
2019-05-23T01:59:20.162Z,29.65
2019-05-23T02:01:49.404Z,29.00
2019-05-23T02:04:18.904Z,28.35
2019-05-23T02:06:47.903Z,28.45
2019-05-23T02:09:17.012Z,26.60
2019-05-23T02:11:45.751Z,29.60
2019-05-23T02:14:15.127Z,29.60
2019-05-23T02:16:44.710Z,30.20
2019-05-23T02:19:14.064Z,29.95
2019-05-23T02:21:43.254Z,30.95
2019-05-23T02:24:12.486Z,31.00
2019-05-23T02:26:41.085Z,31.10
2019-05-23T02:29:10.346Z,31.87
2019-05-23T02:31:40.455Z,33.63
2019-05-23T02:34:09.491Z,30.32
2019-05-23T02:36:39.168Z,30.00
2019-05-23T02:39:21.809Z,30.12
2019-05-23T02:41:58.773Z,30.25
2019-05-23T02:44:29.580Z,30.68
2019-05-23T02:46:59.794Z,28.27
2019-05-23T02:49:31.598Z,29.37
2019-05-23T02:52:03.694Z,29.00
2019-05-23T02:54:37.385Z,28.50
2019-05-23T02:57:07.383Z,25.15
2019-05-23T02:59:48.013Z,23.42
2019-05-23T03:02:47.544Z,21.45
2019-05-23T03:05:17.894Z,20.02
2019-05-23T03:07:46.703Z,19.80
2019-05-23T03:10:16.908Z,20.55
2019-05-23T03:12:47.549Z,20.77
2019-05-23T03:15:17.220Z,19.57
2019-05-23T03:17:51.820Z,18.60
2019-05-23T03:20:21.800Z,18.95
2019-05-23T03:23:04.230Z,18.15
2019-05-23T03:25:41.611Z,17.32
2019-05-23T03:28:12.712Z,17.32
2019-05-23T03:31:25.368Z,17.20
2019-05-23T03:33:32.499Z,16.50
2019-05-23T03:36:03.521Z,15.65
2019-05-23T03:38:32.927Z,15.63
2019-05-23T03:41:02.260Z,15.68
2019-05-23T03:43:31.744Z,14.95
2019-05-23T03:46:02.244Z,14.65
2019-05-23T03:48:32.027Z,14.38
2019-05-23T03:51:02.426Z,14.45
2019-05-23T03:53:32.141Z,15.63
2019-05-23T03:56:01.261Z,16.57
2019-05-23T03:58:31.684Z,14.90
2019-05-23T04:01:02.177Z,15.13
2019-05-23T04:03:30.806Z,14.70
2019-05-23T04:05:59.782Z,13.35
2019-05-23T04:08:29.024Z,13.40
2019-05-23T04:10:59.136Z,13.53
2019-05-23T04:13:27.965Z,12.13
2019-05-23T04:15:57.199Z,12.98
2019-05-23T04:18:26.977Z,12.13
2019-05-23T04:20:56.020Z,12.47
2019-05-23T04:23:24.660Z,11.78
2019-05-23T04:25:53.660Z,12.18
2019-05-23T04:28:22.384Z,12.33
2019-05-23T04:30:51.197Z,11.15
2019-05-23T04:33:20.333Z,11.93
2019-05-23T04:35:49.343Z,10.72
2019-05-23T04:38:17.948Z,10.93
2019-05-23T04:40:47.183Z,11.15
2019-05-23T04:43:16.104Z,11.30
2019-05-23T04:45:45.180Z,11.70
2019-05-23T04:48:14.356Z,11.00
2019-05-23T04:50:43.389Z,11.73
2019-05-23T04:53:12.554Z,11.83
2019-05-23T04:55:42.312Z,11.48
2019-05-23T04:58:11.980Z,11.65
2019-05-23T05:00:41.354Z,10.28
2019-05-23T05:03:11.151Z,11.25
2019-05-23T05:05:40.365Z,9.20
2019-05-23T05:08:09.959Z,10.08
2019-05-23T05:10:38.786Z,10.00
2019-05-23T05:13:08.498Z,8.95
2019-05-23T05:15:37.828Z,8.38
2019-05-23T05:18:07.219Z,9.20
2019-05-23T05:20:36.450Z,9.85
2019-05-23T05:23:05.150Z,10.20
2019-05-23T05:25:33.827Z,9.08
2019-05-23T05:28:03.317Z,10.93
2019-05-23T05:30:32.252Z,8.50
2019-05-23T05:33:01.829Z,9.58
2019-05-23T05:35:32.943Z,11.28
2019-05-23T05:38:01.989Z,11.10
2019-05-23T05:40:30.976Z,9.93
2019-05-23T05:43:00.143Z,11.70
2019-05-23T05:45:28.890Z,10.45
2019-05-23T05:47:57.675Z,10.60
2019-05-23T05:50:26.433Z,8.63
2019-05-23T05:52:55.541Z,7.45
2019-05-23T05:55:24.285Z,7.85
2019-05-23T05:57:53.157Z,7.53
2019-05-23T06:00:27.283Z,7.15
2019-05-23T06:03:04.559Z,6.67
2019-05-23T06:05:29.060Z,6.00
2019-05-23T06:07:58.290Z,6.37
2019-05-23T06:10:27.446Z,6.55
2019-05-23T06:12:56.029Z,6.40
2019-05-23T06:15:25.647Z,6.03
2019-05-23T06:17:54.241Z,6.33
2019-05-23T06:20:24.545Z,6.55
2019-05-23T06:22:53.388Z,5.83
2019-05-23T06:25:22.367Z,5.70
2019-05-23T06:27:51.545Z,5.55
2019-05-23T06:30:21.343Z,5.33
2019-05-23T06:32:50.044Z,5.60
2019-05-23T06:35:20.143Z,5.33
2019-05-23T06:37:49.055Z,6.08
2019-05-23T06:40:18.472Z,6.72
2019-05-23T06:42:50.526Z,5.78
2019-05-23T06:45:17.637Z,5.83
2019-05-23T06:47:46.410Z,5.55
2019-05-23T06:50:19.424Z,5.78
2019-05-23T06:52:49.626Z,5.33
2019-05-23T06:55:18.213Z,4.47
2019-05-23T06:57:46.801Z,5.62
2019-05-23T07:00:17.341Z,5.33
2019-05-23T07:02:47.495Z,6.40
2019-05-23T07:05:18.638Z,5.05
2019-05-23T07:07:47.577Z,5.05
2019-05-23T07:10:16.724Z,5.45
2019-05-23T07:12:45.714Z,5.95
2019-05-23T07:15:14.812Z,5.30
2019-05-23T07:17:43.754Z,5.35
2019-05-23T07:20:13.003Z,5.25
2019-05-23T07:22:41.891Z,6.10
2019-05-23T07:25:10.854Z,5.85
2019-05-23T07:27:39.982Z,5.83
2019-05-23T07:30:12.325Z,5.53
2019-05-23T07:32:41.046Z,6.53
2019-05-23T07:35:10.027Z,6.58
2019-05-23T07:37:39.003Z,6.08
2019-05-23T07:40:08.024Z,5.10
2019-05-23T07:42:36.954Z,5.05
2019-05-23T07:45:08.926Z,4.90
2019-05-23T07:47:40.117Z,5.10
2019-05-23T07:50:08.205Z,4.95
2019-05-23T07:52:37.081Z,5.05
2019-05-23T07:55:08.343Z,5.78
2019-05-23T07:57:37.266Z,5.72
2019-05-23T08:00:08.198Z,4.47
2019-05-23T08:02:40.341Z,5.20
2019-05-23T08:05:11.429Z,4.95
2019-05-23T08:07:40.844Z,4.97
2019-05-23T08:10:10.044Z,4.85
2019-05-23T08:12:39.801Z,4.33
2019-05-23T08:15:10.372Z,5.17
2019-05-23T08:17:39.176Z,5.97
2019-05-23T08:20:09.538Z,8.43
2019-05-23T08:22:38.215Z,7.22
2019-05-23T08:25:06.924Z,9.63
2019-05-23T08:27:35.557Z,12.45
2019-05-23T08:30:08.741Z,13.00
2019-05-23T08:32:37.509Z,12.45
2019-05-23T08:35:06.638Z,9.60
2019-05-23T08:37:35.507Z,10.35
2019-05-23T08:40:06.258Z,8.25
2019-05-23T08:42:36.356Z,9.13
2019-05-23T08:45:08.186Z,8.30
2019-05-23T08:47:37.727Z,6.45
2019-05-23T08:50:08.332Z,5.50
2019-05-23T08:52:37.534Z,5.00
2019-05-23T08:55:21.550Z,5.25
2019-05-23T08:57:50.990Z,5.62
2019-05-23T09:00:20.708Z,5.17
2019-05-23T09:02:51.809Z,3.80
2019-05-23T09:05:22.458Z,3.87
2019-05-23T09:07:52.213Z,4.15
2019-05-23T09:10:21.165Z,3.58
2019-05-23T09:12:49.819Z,3.67
2019-05-23T09:15:19.192Z,3.87
2019-05-23T09:17:53.406Z,4.70
2019-05-23T09:20:20.177Z,3.67
2019-05-23T09:22:48.981Z,3.90
2019-05-23T09:25:19.062Z,4.47
2019-05-23T09:27:49.527Z,4.28
2019-05-23T09:30:18.950Z,3.92
2019-05-23T09:32:52.602Z,4.33
2019-05-23T09:35:22.405Z,3.60
2019-05-23T09:37:51.217Z,3.67
2019-05-23T09:40:20.588Z,3.83
2019-05-23T09:42:49.255Z,4.08
2019-05-23T09:45:18.395Z,3.72
2019-05-23T09:47:51.060Z,3.85
2019-05-23T09:50:18.571Z,4.28
2019-05-23T09:52:47.506Z,3.87
2019-05-23T09:55:17.454Z,4.67
2019-05-23T09:57:46.025Z,5.00
2019-05-23T10:00:19.837Z,4.15
2019-05-23T10:02:48.424Z,4.00
2019-05-23T10:05:17.763Z,4.17
2019-05-23T10:07:46.474Z,6.78
2019-05-23T10:10:17.746Z,4.65
2019-05-23T10:12:46.804Z,3.85
2019-05-23T10:15:26.364Z,3.00
2019-05-23T10:17:55.093Z,3.50
2019-05-23T10:20:27.303Z,3.20
2019-05-23T10:22:56.277Z,3.65
2019-05-23T10:25:24.993Z,3.12
2019-05-23T10:27:55.778Z,3.33
2019-05-23T10:30:24.768Z,3.37
2019-05-23T10:32:53.332Z,3.55
2019-05-23T10:35:22.663Z,3.52
2019-05-23T10:37:51.792Z,3.42
2019-05-23T10:40:22.019Z,3.60
2019-05-23T10:42:50.762Z,3.92
2019-05-23T10:45:19.559Z,4.20
2019-05-23T10:47:48.279Z,4.37
2019-05-23T10:50:18.485Z,5.83
2019-05-23T10:52:47.160Z,8.00
2019-05-23T10:55:16.216Z,7.92
2019-05-23T10:57:45.136Z,4.50
2019-05-23T11:00:16.188Z,19.35
2019-05-23T11:02:45.210Z,2.95
2019-05-23T11:05:14.499Z,3.40
2019-05-23T11:07:43.988Z,3.37
2019-05-23T11:10:13.115Z,3.40
2019-05-23T11:12:42.419Z,2.40
2019-05-23T11:15:11.622Z,3.15
2019-05-23T11:17:40.439Z,3.33
2019-05-23T11:20:10.918Z,3.33
2019-05-23T11:22:39.679Z,3.27
2019-05-23T11:25:10.634Z,2.95
2019-05-23T11:27:40.055Z,2.60
2019-05-23T11:30:12.304Z,2.98
2019-05-23T11:32:41.287Z,3.27
2019-05-23T11:35:10.285Z,2.83
2019-05-23T11:37:41.933Z,3.37
2019-05-23T11:40:10.343Z,2.75
2019-05-23T11:42:39.248Z,3.90
2019-05-23T11:45:08.857Z,3.15
2019-05-23T11:47:37.652Z,2.83
2019-05-23T11:50:07.726Z,3.20
2019-05-23T11:52:36.368Z,3.02
2019-05-23T11:55:07.043Z,3.10
2019-05-23T11:57:37.776Z,6.03
2019-05-23T12:00:09.516Z,7.65
2019-05-23T12:02:40.464Z,9.35
2019-05-23T12:05:11.250Z,10.00
2019-05-23T12:07:39.955Z,8.78
2019-05-23T12:10:09.356Z,8.88
2019-05-23T12:12:38.174Z,10.08
2019-05-23T12:15:13.228Z,10.63
2019-05-23T12:17:42.645Z,6.50
2019-05-23T12:20:11.910Z,8.13
2019-05-23T12:22:40.852Z,8.50
2019-05-23T12:25:21.779Z,6.95
2019-05-23T12:27:42.154Z,8.03
2019-05-23T12:30:14.292Z,6.75
2019-05-23T12:32:42.982Z,6.78
2019-05-23T12:35:12.407Z,9.28
2019-05-23T12:37:41.281Z,9.38
2019-05-23T12:40:12.054Z,7.10
2019-05-23T12:42:40.730Z,9.80
2019-05-23T12:45:11.640Z,9.00
2019-05-23T12:47:54.300Z,10.15
2019-05-23T12:50:27.501Z,9.00
2019-05-23T12:52:56.274Z,8.98
2019-05-23T12:55:25.249Z,8.50
2019-05-23T12:57:53.980Z,7.47
2019-05-23T13:00:43.028Z,7.47
2019-05-23T13:03:13.636Z,7.00
2019-05-23T13:05:42.777Z,7.97
2019-05-23T13:08:11.485Z,6.47
2019-05-23T13:10:40.634Z,5.50
2019-05-23T13:13:09.693Z,7.17
2019-05-23T13:15:38.323Z,8.15
2019-05-23T13:18:06.981Z,6.85
2019-05-23T13:20:37.600Z,6.90
2019-05-23T13:23:07.131Z,9.18
2019-05-23T13:25:36.396Z,9.18
2019-05-23T13:28:05.259Z,8.98
2019-05-23T13:30:34.199Z,8.90
2019-05-23T13:33:03.988Z,3.50
2019-05-23T13:35:33.720Z,1.82
2019-05-23T13:38:02.529Z,2.20
2019-05-23T13:40:31.676Z,2.15
2019-05-23T13:43:00.476Z,1.80
2019-05-23T13:45:29.433Z,2.40
2019-05-23T13:47:58.042Z,2.30
2019-05-23T13:50:27.608Z,1.75
2019-05-23T13:52:56.702Z,2.15
2019-05-23T13:55:25.854Z,2.47
2019-05-23T13:57:54.455Z,2.08
2019-05-23T14:00:24.875Z,2.75
2019-05-23T14:02:53.825Z,4.15
2019-05-23T14:05:23.663Z,2.92
2019-05-23T14:08:08.770Z,2.60
2019-05-23T14:10:23.570Z,4.12
2019-05-23T14:12:52.305Z,2.10
2019-05-23T14:15:28.209Z,1.40
2019-05-23T14:17:57.372Z,0.98
2019-05-23T14:20:26.706Z,1.20
2019-05-23T14:22:57.313Z,1.35
2019-05-23T14:25:26.236Z,1.45
2019-05-23T14:27:59.575Z,1.55
2019-05-23T14:30:29.946Z,2.00
2019-05-23T14:33:03.855Z,2.80
2019-05-23T14:35:34.092Z,3.98
2019-05-23T14:38:04.617Z,2.12
2019-05-23T14:40:33.502Z,2.75
2019-05-23T14:43:03.757Z,2.30
2019-05-23T14:45:34.181Z,2.30
2019-05-23T14:48:12.234Z,1.60
2019-05-23T14:50:42.594Z,1.47
2019-05-23T14:53:16.103Z,1.50
2019-05-23T14:55:44.865Z,2.30
2019-05-23T14:58:15.099Z,1.75
2019-05-23T15:00:45.074Z,2.15
2019-05-23T15:03:14.007Z,2.55
2019-05-23T15:05:42.722Z,1.77
2019-05-23T15:08:11.609Z,2.50
2019-05-23T15:10:40.219Z,2.62
2019-05-23T15:13:08.980Z,3.47
2019-05-23T15:15:37.683Z,3.00
2019-05-23T15:18:06.903Z,5.42
2019-05-23T15:20:35.850Z,4.28
2019-05-23T15:23:04.558Z,6.90
2019-05-23T15:25:33.405Z,3.30
2019-05-23T15:28:01.996Z,4.40
2019-05-23T15:30:30.734Z,4.62
2019-05-23T15:32:59.557Z,6.47
2019-05-23T15:35:28.968Z,6.08
2019-05-23T15:37:57.556Z,4.83
2019-05-23T15:40:26.436Z,5.60
2019-05-23T15:42:55.130Z,5.58
2019-05-23T15:45:24.118Z,7.35
2019-05-23T15:47:53.590Z,6.42
2019-05-23T15:50:27.076Z,7.00
2019-05-23T15:52:57.373Z,7.37
2019-05-23T15:55:27.681Z,8.00
2019-05-23T15:58:04.076Z,7.33
2019-05-23T16:00:51.069Z,7.30
2019-05-23T16:03:35.365Z,7.35
2019-05-23T16:06:05.746Z,7.55
2019-05-23T16:08:35.781Z,7.85
2019-05-23T16:11:04.603Z,8.55
2019-05-23T16:13:33.724Z,8.83
2019-05-23T16:16:03.224Z,9.15
2019-05-23T16:18:32.168Z,9.08
2019-05-23T16:21:01.239Z,8.95
2019-05-23T16:23:30.057Z,9.28
2019-05-23T16:25:58.709Z,9.03
2019-05-23T16:28:28.031Z,9.30
2019-05-23T16:30:56.887Z,9.55
2019-05-23T16:33:25.522Z,9.65
2019-05-23T16:35:54.860Z,10.08
2019-05-23T16:38:23.552Z,9.13
2019-05-23T16:40:52.187Z,9.30
2019-05-23T16:43:21.143Z,10.63
2019-05-23T16:45:50.009Z,9.95
2019-05-23T16:48:18.938Z,10.25
2019-05-23T16:50:47.636Z,10.45
2019-05-23T16:53:16.346Z,10.35
2019-05-23T16:55:49.813Z,9.70
2019-05-23T16:58:20.089Z,10.98
2019-05-23T17:00:59.554Z,10.63
2019-05-23T17:03:46.805Z,10.72
2019-05-23T17:06:26.145Z,10.72
2019-05-23T17:09:04.953Z,11.38
2019-05-23T17:11:44.084Z,13.13
2019-05-23T17:14:14.591Z,12.95
2019-05-23T17:16:47.798Z,12.90
2019-05-23T17:19:18.180Z,12.45
2019-05-23T17:21:51.480Z,14.18
2019-05-23T17:24:33.773Z,13.25
2019-05-23T17:27:20.202Z,13.23
2019-05-23T17:29:53.163Z,13.80
2019-05-23T17:34:51.710Z,14.55
2019-05-23T17:37:21.741Z,17.30
2019-05-23T17:39:53.373Z,29.30
2019-05-23T17:42:21.571Z,38.50
2019-05-23T17:44:50.160Z,39.85
2019-05-23T17:47:19.609Z,37.45
2019-05-23T17:49:48.184Z,39.42
2019-05-23T17:52:17.934Z,39.13
2019-05-23T17:54:47.041Z,36.63
2019-05-23T17:57:16.203Z,34.43
2019-05-23T17:59:44.955Z,32.88
2019-05-23T18:02:14.695Z,34.80
2019-05-23T18:04:43.379Z,33.45
2019-05-23T18:07:12.911Z,31.25
2019-05-23T18:09:41.839Z,27.87
2019-05-23T18:12:10.575Z,16.42
2019-05-23T18:14:39.854Z,16.35
2019-05-23T18:17:09.473Z,14.25
2019-05-23T18:19:38.710Z,14.70
2019-05-23T18:22:08.553Z,14.90
2019-05-23T18:24:37.496Z,15.63
2019-05-23T18:27:07.742Z,14.78
2019-05-23T18:29:36.488Z,17.27
2019-05-23T18:32:06.986Z,16.93
2019-05-23T18:34:36.886Z,16.40
2019-05-23T18:37:07.659Z,15.70
2019-05-23T18:39:37.160Z,15.08
2019-05-23T18:42:06.684Z,20.60
2019-05-23T18:44:35.320Z,22.67
2019-05-23T18:47:05.847Z,23.52
2019-05-23T18:49:34.951Z,23.32
2019-05-23T18:52:04.094Z,28.47
2019-05-23T18:54:32.754Z,24.80
2019-05-23T18:57:01.449Z,25.75
2019-05-23T18:59:30.822Z,25.30
2019-05-23T19:01:59.766Z,23.77
2019-05-23T19:04:28.773Z,24.92
2019-05-23T19:06:58.245Z,20.92
2019-05-23T19:09:28.280Z,20.25
2019-05-23T19:11:58.113Z,18.17
2019-05-23T19:14:26.882Z,17.12
2019-05-23T19:16:56.621Z,16.48
2019-05-23T19:19:25.483Z,16.90
2019-05-23T19:21:54.214Z,17.05
2019-05-23T19:24:23.478Z,16.77
2019-05-23T19:26:52.214Z,16.62
2019-05-23T19:29:22.282Z,17.67
2019-05-23T19:31:51.012Z,16.93
2019-05-23T19:34:19.802Z,16.52
2019-05-23T19:36:48.586Z,16.27
2019-05-23T19:39:17.926Z,17.80
2019-05-23T19:41:46.542Z,17.98
2019-05-23T19:44:15.722Z,18.73
2019-05-23T19:46:44.879Z,18.65
2019-05-23T19:49:14.367Z,18.67
2019-05-23T19:51:43.008Z,18.55
2019-05-23T19:54:11.995Z,20.62
2019-05-23T19:56:40.973Z,21.12
2019-05-23T19:59:09.671Z,26.45
2019-05-23T20:01:39.957Z,30.55
2019-05-23T20:04:09.159Z,35.68
2019-05-23T20:06:37.849Z,39.50
2019-05-23T20:09:10.319Z,43.40
2019-05-23T20:11:53.242Z,41.58
2019-05-23T20:14:09.361Z,39.58
2019-05-23T20:16:38.234Z,38.42
2019-05-23T20:19:06.889Z,39.60
2019-05-23T20:21:35.731Z,38.73
2019-05-23T20:24:04.723Z,39.70
2019-05-23T20:26:33.475Z,37.15
2019-05-23T20:29:03.487Z,24.52
2019-05-23T20:31:32.278Z,21.35
2019-05-23T20:34:01.100Z,22.85
2019-05-23T20:36:29.906Z,23.20
2019-05-23T20:38:58.627Z,20.97
2019-05-23T20:41:27.576Z,21.10
2019-05-23T20:43:56.210Z,23.52
2019-05-23T20:46:25.119Z,22.82
2019-05-23T20:48:53.749Z,22.75
2019-05-23T20:51:23.626Z,23.83
2019-05-23T20:53:52.735Z,22.10
2019-05-23T20:56:21.340Z,21.62
2019-05-23T20:58:49.909Z,19.02
2019-05-23T21:01:23.266Z,17.98
2019-05-23T21:03:52.753Z,16.35
2019-05-23T21:06:21.401Z,16.23
2019-05-23T21:08:50.128Z,15.65
2019-05-23T21:11:18.925Z,15.23
2019-05-23T21:13:47.632Z,14.95
2019-05-23T21:16:16.333Z,16.10
2019-05-23T21:18:48.632Z,14.93
2019-05-23T21:21:15.462Z,15.32
2019-05-23T21:23:44.074Z,14.63
2019-05-23T21:26:12.804Z,14.95
2019-05-23T21:28:41.698Z,14.85
2019-05-23T21:31:12.128Z,13.85
2019-05-23T21:33:40.818Z,14.18
2019-05-23T21:36:09.382Z,14.13
2019-05-23T21:38:38.142Z,14.15
2019-05-23T21:41:06.776Z,14.58
2019-05-23T21:43:35.566Z,14.60
2019-05-23T21:46:04.590Z,15.35
2019-05-23T21:48:33.361Z,14.93
2019-05-23T21:51:02.337Z,15.70
2019-05-23T21:53:30.959Z,15.88
2019-05-23T21:55:59.654Z,16.07
2019-05-23T21:58:28.334Z,16.07
2019-05-23T22:01:01.788Z,15.25
2019-05-23T22:03:32.116Z,15.88
2019-05-23T22:06:01.334Z,15.88
2019-05-23T22:08:30.158Z,16.27
2019-05-23T22:10:58.865Z,15.75
2019-05-23T22:13:27.576Z,16.95
2019-05-23T22:15:59.226Z,18.12
2019-05-23T22:18:28.075Z,17.85
2019-05-23T22:20:56.775Z,18.40
2019-05-23T22:23:25.393Z,18.20
2019-05-23T22:25:54.415Z,18.45
2019-05-23T22:28:23.509Z,19.67
2019-05-23T22:30:52.389Z,17.60
2019-05-23T22:33:22.754Z,17.98
2019-05-23T22:35:51.491Z,16.62
2019-05-23T22:38:20.390Z,17.50
2019-05-23T22:40:49.014Z,16.52
2019-05-23T22:43:21.096Z,17.73
2019-05-23T22:45:47.968Z,16.67
2019-05-23T22:48:16.760Z,16.32
2019-05-23T22:50:45.417Z,17.62
2019-05-23T22:53:14.046Z,17.05
2019-05-23T22:55:42.738Z,17.37
2019-05-23T22:58:11.502Z,22.50
2019-05-23T23:00:42.078Z,21.75
2019-05-23T23:03:10.767Z,23.00
2019-05-23T23:05:39.510Z,26.55
2019-05-23T23:08:08.639Z,33.60
2019-05-23T23:10:37.358Z,40.15
2019-05-23T23:13:06.028Z,36.40
2019-05-23T23:15:34.921Z,34.10
2019-05-23T23:18:03.719Z,33.63
2019-05-23T23:20:32.743Z,33.23
2019-05-23T23:23:01.443Z,31.60
2019-05-23T23:25:30.060Z,31.77
2019-05-23T23:27:58.910Z,31.07
2019-05-23T23:30:29.239Z,31.15
2019-05-23T23:32:57.946Z,31.07
2019-05-23T23:35:26.672Z,29.42
2019-05-23T23:37:55.285Z,27.15
2019-05-23T23:40:23.987Z,25.95
2019-05-23T23:42:52.623Z,23.90
2019-05-23T23:45:39.177Z,25.40
2019-05-23T23:48:25.724Z,23.27
2019-05-23T23:51:12.238Z,21.20
2019-05-23T23:53:59.072Z,21.75
2019-05-23T23:56:46.349Z,17.40
2019-05-23T23:59:14.245Z,19.05
